Time;durP1;ratioP1;P1;durP2;ratioP2;P2;SDS_P1;SDS_P2;PMS_P1;PMS_P2;Temp;Humidity;BMP_temperature;BMP_pressure;BME280_temperature;BME280_humidity;BME280_pressure;Samples;Min_cycle;Max_cycle;Signal;HPM_P1;HPM_P2
2023/01/03 00:01:32;;;;;;;12.07;6.80;;;4.00;99.90;;;;;;4977302;28;20046;-82
2023/01/03 00:03:58;;;;;;;13.70;7.40;;;3.90;99.90;;;;;;4998591;28;20088;-82
2023/01/03 00:06:27;;;;;;;13.07;6.70;;;3.90;99.90;;;;;;5012675;28;20049;-82
2023/01/03 00:08:55;;;;;;;11.40;7.10;;;4.00;99.90;;;;;;4996144;28;20053;-82
2023/01/03 00:12:22;;;;;;;12.40;7.00;;;3.90;99.90;;;;;;4980034;28;20119;-82
2023/01/03 00:14:11;;;;;;;13.47;6.90;;;3.90;99.90;;;;;;5012308;28;20528;-82
2023/01/03 00:16:36;;;;;;;9.77;6.60;;;4.00;99.90;;;;;;4979699;28;20038;-82
2023/01/03 00:19:13;;;;;;;15.30;7.93;;;4.00;99.90;;;;;;4996037;28;20041;-82
2023/01/03 00:21:40;;;;;;;11.87;7.27;;;4.00;99.90;;;;;;4968269;28;20394;-82
2023/01/03 00:24:07;;;;;;;12.40;6.50;;;4.00;99.90;;;;;;4993091;28;20053;-82
2023/01/03 00:26:35;;;;;;;13.43;6.73;;;4.00;99.90;;;;;;4984025;28;20042;-82
2023/01/03 00:29:01;;;;;;;11.97;6.50;;;4.00;99.90;;;;;;5012150;28;20046;-82
2023/01/03 00:31:27;;;;;;;11.47;6.67;;;4.00;99.90;;;;;;4980064;28;20117;-82
2023/01/03 00:33:53;;;;;;;10.87;6.83;;;3.90;99.90;;;;;;4995810;28;20180;-82
2023/01/03 00:36:18;;;;;;;15.17;7.63;;;3.80;99.90;;;;;;4996101;28;20045;-82
2023/01/03 00:38:44;;;;;;;12.70;6.90;;;3.80;99.90;;;;;;4996311;28;20048;-82
2023/01/03 00:41:12;;;;;;;11.93;6.97;;;3.80;99.90;;;;;;4963768;28;20037;-83
2023/01/03 00:43:41;;;;;;;14.20;7.80;;;3.80;99.90;;;;;;4995639;28;20053;-82
2023/01/03 00:46:09;;;;;;;11.50;7.43;;;3.70;99.90;;;;;;4996259;28;20766;-82
2023/01/03 00:48:35;;;;;;;10.53;7.30;;;3.60;99.90;;;;;;4995660;28;20038;-82
2023/01/03 00:51:09;;;;;;;17.17;9.13;;;3.60;99.90;;;;;;5012505;28;20074;-82
2023/01/03 00:53:36;;;;;;;15.07;9.23;;;3.60;99.90;;;;;;4991915;28;20034;-82
2023/01/03 00:56:07;;;;;;;17.57;8.43;;;3.60;99.90;;;;;;4978302;28;20077;-82
2023/01/03 00:58:33;;;;;;;17.77;9.47;;;3.60;99.90;;;;;;4986008;28;20056;-82
2023/01/03 01:01:13;;;;;;;12.53;8.47;;;3.60;99.90;;;;;;4981774;28;20073;-82
2023/01/03 01:03:41;;;;;;;16.27;8.87;;;3.60;99.90;;;;;;4999841;28;20050;-82
2023/01/03 01:06:21;;;;;;;16.17;9.30;;;3.50;99.90;;;;;;4999581;28;20472;-82
2023/01/03 01:08:48;;;;;;;14.63;8.50;;;3.60;99.90;;;;;;4979144;28;20050;-81
2023/01/03 01:11:15;;;;;;;18.10;9.03;;;3.60;99.90;;;;;;4980170;28;20049;-82
2023/01/03 01:13:42;;;;;;;12.63;8.53;;;3.60;99.90;;;;;;4999269;28;20128;-82
2023/01/03 01:16:10;;;;;;;25.60;10.23;;;3.70;99.90;;;;;;4983165;28;20054;-82
2023/01/03 01:18:37;;;;;;;12.50;8.07;;;3.70;99.90;;;;;;5015544;28;20661;-82
2023/01/03 01:21:05;;;;;;;14.00;9.07;;;3.70;99.90;;;;;;4999071;28;20041;-82
2023/01/03 01:23:30;;;;;;;20.33;10.73;;;3.80;99.90;;;;;;5016689;28;20046;-82
2023/01/03 01:26:00;;;;;;;17.23;10.50;;;3.80;99.90;;;;;;4999366;28;20083;-82
2023/01/03 01:28:26;;;;;;;16.03;10.83;;;3.80;99.90;;;;;;5015366;28;20049;-82
2023/01/03 01:30:52;;;;;;;22.13;12.17;;;3.90;99.90;;;;;;4998795;28;20045;-82
2023/01/03 01:33:17;;;;;;;21.03;12.43;;;3.90;99.90;;;;;;4998821;28;20033;-82
2023/01/03 01:35:43;;;;;;;20.87;12.37;;;4.00;99.90;;;;;;4998666;28;20045;-82
2023/01/03 01:38:09;;;;;;;21.37;12.43;;;4.00;99.90;;;;;;4999046;28;20092;-82
2023/01/03 01:40:35;;;;;;;18.03;12.17;;;4.00;99.90;;;;;;5009550;28;20124;-82
2023/01/03 01:46:24;;;;;;;19.90;12.87;;;4.10;99.90;;;;;;4997904;28;20045;-82
2023/01/03 01:48:57;;;;;;;21.57;11.90;;;4.00;99.90;;;;;;4999091;28;20041;-82
2023/01/03 01:51:26;;;;;;;19.70;12.37;;;4.00;99.90;;;;;;5014018;28;20401;-82
2023/01/03 01:53:54;;;;;;;21.50;12.93;;;4.00;99.90;;;;;;4997759;28;20049;-82
2023/01/03 01:56:27;;;;;;;17.97;12.43;;;3.90;99.90;;;;;;5014759;28;20037;-81
2023/01/03 01:58:54;;;;;;;17.70;11.63;;;3.90;99.90;;;;;;4998334;28;20753;-82
2023/01/03 02:01:22;;;;;;;20.87;12.13;;;3.80;99.90;;;;;;4998597;28;20513;-82
2023/01/03 02:04:05;;;;;;;20.30;12.13;;;3.80;99.90;;;;;;5014049;28;20041;-82
2023/01/03 02:06:32;;;;;;;19.70;11.83;;;3.70;99.90;;;;;;5013642;28;20041;-82
2023/01/03 02:08:59;;;;;;;15.53;11.07;;;3.60;99.90;;;;;;5014388;28;20112;-82
2023/01/03 02:15:06;;;;;;;14.83;10.67;;;3.60;99.90;;;;;;5009658;28;20117;-82
2023/01/03 02:17:47;;;;;;;23.20;13.02;;;3.50;99.90;;;;;;4995000;28;20034;-82
2023/01/03 02:20:41;;;;;;;24.97;13.70;;;3.50;99.90;;;;;;4979056;28;20092;-82
2023/01/03 02:23:57;;;;;;;23.90;13.73;;;3.40;99.90;;;;;;4978950;28;20043;-82
2023/01/03 02:26:40;;;;;;;24.23;13.53;;;3.40;99.90;;;;;;4961541;28;20078;-82
2023/01/03 02:29:35;;;;;;;19.07;12.53;;;3.30;99.90;;;;;;4978506;28;20045;-82
2023/01/03 02:32:12;;;;;;;21.20;13.50;;;3.30;99.90;;;;;;4956156;28;20050;-82
2023/01/03 02:34:43;;;;;;;20.43;13.43;;;3.30;99.90;;;;;;4995756;28;20846;-82
2023/01/03 02:37:41;;;;;;;23.33;13.23;;;3.30;99.90;;;;;;5014169;28;20037;-81
2023/01/03 02:40:16;;;;;;;17.00;11.93;;;3.30;99.90;;;;;;4978404;28;20093;-82
2023/01/03 02:43:11;;;;;;;23.57;12.53;;;3.30;99.90;;;;;;4998423;28;20065;-82
2023/01/03 02:46:07;;;;;;;21.73;11.70;;;3.30;99.90;;;;;;4975244;28;20398;-82
2023/01/03 02:48:37;;;;;;;19.93;12.37;;;3.30;99.90;;;;;;4993099;28;20045;-82
2023/01/03 02:51:11;;;;;;;21.27;13.93;;;3.20;99.90;;;;;;5013950;28;20045;-82
2023/01/03 02:53:46;;;;;;;18.97;12.47;;;3.30;99.90;;;;;;4996277;28;20038;-83
2023/01/03 02:56:17;;;;;;;21.70;14.40;;;3.30;99.90;;;;;;4997135;28;20465;-82
2023/01/03 02:58:47;;;;;;;23.23;13.65;;;3.30;99.90;;;;;;5014055;28;20394;-82
2023/01/03 03:01:15;;;;;;;20.57;13.43;;;3.30;99.90;;;;;;5013846;28;20402;-82
2023/01/03 03:03:41;;;;;;;21.73;13.93;;;3.30;99.90;;;;;;4996817;28;20050;-82
2023/01/03 03:06:32;;;;;;;21.70;14.00;;;3.30;99.90;;;;;;4997117;28;20851;-82
2023/01/03 03:08:58;;;;;;;23.97;14.67;;;3.30;99.90;;;;;;4996799;28;20430;-82
2023/01/03 03:14:22;;;;;;;25.60;14.17;;;3.40;99.90;;;;;;5012557;28;20054;-82
2023/01/03 03:16:50;;;;;;;22.83;14.37;;;3.40;99.90;;;;;;5013473;28;20355;-82
2023/01/03 03:25:34;;;;;;;27.27;15.50;;;3.30;99.90;;;;;;5013154;28;20045;-82
2023/01/03 03:30:56;;;;;;;28.63;16.27;;;3.20;99.90;;;;;;4993894;28;20046;-82
2023/01/03 03:33:24;;;;;;;23.30;14.10;;;3.20;99.90;;;;;;5013093;28;20052;-82
2023/01/03 03:35:58;;;;;;;31.73;16.30;;;3.10;99.90;;;;;;4996617;28;20050;-82
2023/01/03 03:38:33;;;;;;;26.20;15.93;;;3.10;99.90;;;;;;4996409;28;20077;-82
2023/01/03 03:47:44;;;;;;;21.00;12.63;;;3.00;99.90;;;;;;5012781;28;20053;-82
2023/01/03 03:50:36;;;;;;;20.33;13.97;;;2.90;99.90;;;;;;4996977;28;20037;-82
2023/01/03 03:53:06;;;;;;;21.05;13.75;;;2.90;99.90;;;;;;4997029;28;20121;-82
2023/01/03 03:55:34;;;;;;;23.10;14.73;;;2.90;99.90;;;;;;5012427;28;20511;-81
2023/01/03 03:58:05;;;;;;;21.00;13.37;;;2.90;99.90;;;;;;5012700;28;20056;-82
2023/01/03 04:00:37;;;;;;;17.67;12.13;;;2.90;99.90;;;;;;5013858;28;20042;-82
2023/01/03 04:03:03;;;;;;;22.52;13.98;;;2.80;99.90;;;;;;5012324;28;20398;-82
2023/01/03 04:05:35;;;;;;;21.83;14.60;;;2.80;99.90;;;;;;5012375;28;20046;-82
2023/01/03 04:08:00;;;;;;;19.13;12.15;;;2.80;99.90;;;;;;5012337;28;20497;-82
2023/01/03 04:10:26;;;;;;;43.93;16.47;;;2.80;99.90;;;;;;5011998;28;20053;-82
2023/01/03 04:12:52;;;;;;;20.57;12.77;;;2.80;99.90;;;;;;5012292;28;20037;-82
2023/01/03 04:15:18;;;;;;;18.57;12.07;;;2.80;99.90;;;;;;4979836;28;20046;-82
2023/01/03 04:17:44;;;;;;;18.63;14.00;;;2.80;99.90;;;;;;4980102;28;20048;-82
2023/01/03 04:20:10;;;;;;;27.43;16.53;;;2.80;99.90;;;;;;4995567;28;20046;-82
2023/01/03 04:22:37;;;;;;;24.17;15.17;;;2.90;99.90;;;;;;4995834;28;20038;-82
2023/01/03 04:25:03;;;;;;;22.37;14.63;;;2.90;99.90;;;;;;4995312;28;20045;-81
2023/01/03 04:27:29;;;;;;;24.40;14.97;;;2.90;99.90;;;;;;4995604;28;20072;-81
2023/01/03 04:29:55;;;;;;;25.63;15.60;;;2.90;99.90;;;;;;5012054;28;20523;-81
2023/01/03 04:32:21;;;;;;;25.37;15.30;;;2.90;99.90;;;;;;5012101;28;20490;-81
2023/01/03 04:34:47;;;;;;;22.93;14.63;;;2.90;99.90;;;;;;5012384;28;20053;-81
2023/01/03 04:37:12;;;;;;;25.73;15.83;;;2.90;99.90;;;;;;5011955;28;20564;-81
2023/01/03 04:39:38;;;;;;;37.47;19.20;;;2.90;99.90;;;;;;5012468;28;20049;-82
2023/01/03 04:44:48;;;;;;;26.00;15.63;;;2.90;99.90;;;;;;4994850;28;20038;-82
2023/01/03 04:47:14;;;;;;;28.43;17.17;;;3.00;99.90;;;;;;4976049;28;20038;-81
2023/01/03 04:49:42;;;;;;;33.23;18.97;;;3.00;99.90;;;;;;4979291;28;20184;-81
2023/01/03 04:52:08;;;;;;;27.27;17.43;;;3.00;99.90;;;;;;4979968;28;20038;-82
2023/01/03 04:54:34;;;;;;;27.77;16.33;;;3.00;99.90;;;;;;4979510;28;20060;-88
2023/01/03 04:56:59;;;;;;;26.13;16.00;;;3.00;99.90;;;;;;4992642;28;20525;-88
2023/01/03 04:59:25;;;;;;;31.00;18.17;;;3.00;99.90;;;;;;4995630;28;20041;-88
2023/01/03 05:01:51;;;;;;;29.73;18.27;;;3.00;99.90;;;;;;4998537;28;20039;-88
2023/01/03 05:04:17;;;;;;;33.00;18.93;;;3.00;99.90;;;;;;4994510;28;20050;-88
2023/01/03 05:06:42;;;;;;;31.20;19.20;;;3.00;99.90;;;;;;4960294;28;20062;-88
2023/01/03 05:09:08;;;;;;;33.47;19.20;;;3.10;99.90;;;;;;4985033;28;20540;-88
2023/01/03 05:11:34;;;;;;;27.90;16.80;;;3.10;99.90;;;;;;5008234;28;20054;-88
2023/01/03 05:13:59;;;;;;;35.37;19.80;;;3.10;99.90;;;;;;4979360;28;20473;-88
2023/01/03 05:16:25;;;;;;;39.00;22.00;;;3.20;99.90;;;;;;4995487;28;20072;-88
2023/01/03 05:18:52;;;;;;;31.97;18.90;;;3.20;99.90;;;;;;4995408;28;20050;-89
2023/01/03 05:26:51;;;;;;;32.60;19.27;;;3.30;99.90;;;;;;5011604;28;20044;-87
2023/01/03 05:29:19;;;;;;;31.47;19.47;;;3.30;99.90;;;;;;4990118;28;20031;-88
2023/01/03 05:31:45;;;;;;;32.17;19.87;;;3.30;99.90;;;;;;4989679;28;20042;-89
2023/01/03 05:34:11;;;;;;;64.33;25.50;;;3.30;99.90;;;;;;4979685;28;20099;-89
2023/01/03 05:36:37;;;;;;;31.83;20.27;;;3.20;99.90;;;;;;4966429;28;20125;-89
2023/01/03 05:39:04;;;;;;;40.33;22.63;;;3.30;99.90;;;;;;4976451;28;20041;-88
2023/01/03 05:44:13;;;;;;;35.37;21.43;;;3.30;99.90;;;;;;4990970;28;20107;-88
2023/01/03 05:46:39;;;;;;;41.00;22.03;;;3.30;99.90;;;;;;5009883;28;20034;-88
2023/01/03 05:49:05;;;;;;;34.23;20.50;;;3.30;99.90;;;;;;4998360;28;20044;-88
2023/01/03 05:51:31;;;;;;;38.20;22.47;;;3.30;99.90;;;;;;4999960;28;20033;-88
2023/01/03 05:53:56;;;;;;;40.67;22.93;;;3.30;99.90;;;;;;4998494;28;20078;-88
2023/01/03 05:56:22;;;;;;;43.23;23.83;;;3.30;99.90;;;;;;4964891;28;20116;-88
2023/01/03 05:58:48;;;;;;;40.43;22.93;;;3.20;99.90;;;;;;4997188;28;20037;-89
2023/01/03 06:01:15;;;;;;;36.67;22.90;;;3.20;99.90;;;;;;4982667;28;20040;-88
2023/01/03 06:03:45;;;;;;;34.53;22.27;;;3.20;99.90;;;;;;5014698;28;20129;-88
2023/01/03 06:06:12;;;;;;;37.23;22.07;;;3.20;99.90;;;;;;4997975;28;20041;-88
2023/01/03 06:08:39;;;;;;;37.70;22.07;;;3.10;99.90;;;;;;4997997;28;20045;-88
2023/01/03 06:11:11;;;;;;;38.30;21.90;;;3.10;99.90;;;;;;4965245;28;20053;-87
2023/01/03 06:13:37;;;;;;;37.75;23.30;;;3.00;99.90;;;;;;4998699;28;20478;-88
2023/01/03 06:18:53;;;;;;;37.10;22.83;;;3.00;99.90;;;;;;5013196;28;20046;-87
2023/01/03 06:21:19;;;;;;;38.77;23.00;;;2.90;99.90;;;;;;4996343;28;20037;-87
2023/01/03 06:23:46;;;;;;;38.87;22.37;;;2.90;99.90;;;;;;5016840;28;20124;-87
2023/01/03 06:26:17;;;;;;;38.30;24.07;;;2.90;99.90;;;;;;4981274;28;20037;-88
2023/01/03 06:28:42;;;;;;;46.90;25.80;;;2.90;99.90;;;;;;4981420;28;20045;-87
2023/01/03 06:31:09;;;;;;;36.63;23.13;;;2.80;99.90;;;;;;5014671;28;20775;-87
2023/01/03 06:33:35;;;;;;;40.77;23.27;;;2.80;99.90;;;;;;5014134;28;20121;-88
2023/01/03 06:36:09;;;;;;;40.57;24.20;;;2.70;99.90;;;;;;5014429;28;20497;-87
2023/01/03 06:38:36;;;;;;;40.10;22.23;;;2.70;99.90;;;;;;4982029;28;20045;-87
2023/01/03 06:41:02;;;;;;;39.00;23.47;;;2.60;99.90;;;;;;4998408;28;20418;-86
2023/01/03 06:43:28;;;;;;;47.87;26.23;;;2.60;99.90;;;;;;4981272;28;20044;-87
2023/01/03 06:54:22;;;;;;;47.37;25.07;;;2.60;99.90;;;;;;5000209;28;20098;-87
2023/01/03 06:56:49;;;;;;;39.33;23.00;;;2.60;99.90;;;;;;4997557;28;20060;-87
2023/01/03 06:59:15;;;;;;;51.83;25.20;;;2.50;99.90;;;;;;5014074;28;20038;-87
2023/01/03 07:01:41;;;;;;;33.80;21.40;;;2.50;99.90;;;;;;4997477;28;20038;-87
2023/01/03 07:04:06;;;;;;;38.80;22.47;;;2.40;99.90;;;;;;4964886;28;20077;-88
2023/01/03 07:06:32;;;;;;;37.77;22.40;;;2.30;99.90;;;;;;4997257;28;20037;-88
2023/01/03 07:08:58;;;;;;;37.17;22.57;;;2.30;99.90;;;;;;4980422;28;20129;-88
2023/01/03 07:11:23;;;;;;;36.07;22.77;;;2.30;99.90;;;;;;4964456;28;20552;-87
2023/01/03 07:13:59;;;;;;;33.87;21.17;;;2.20;99.90;;;;;;4964787;28;20042;-88
2023/01/03 07:16:30;;;;;;;38.67;22.77;;;2.20;99.90;;;;;;4997021;28;20046;-87
2023/01/03 07:18:56;;;;;;;33.00;21.17;;;2.20;99.90;;;;;;4996983;28;20046;-87
2023/01/03 07:21:24;;;;;;;31.67;20.77;;;2.10;99.90;;;;;;4980992;28;20508;-87
2023/01/03 07:23:52;;;;;;;32.67;21.60;;;2.10;99.90;;;;;;4980776;28;20425;-87
2023/01/03 07:26:18;;;;;;;37.40;22.97;;;2.10;99.90;;;;;;5013562;28;20045;-87
2023/01/03 07:28:44;;;;;;;39.20;23.90;;;2.00;99.90;;;;;;4997192;28;20060;-88
2023/01/03 07:31:10;;;;;;;41.90;24.90;;;2.00;99.90;;;;;;5012870;28;20030;-87
2023/01/03 07:33:38;;;;;;;37.50;22.47;;;2.00;99.90;;;;;;4980651;28;20042;-87
2023/01/03 07:36:08;;;;;;;38.73;22.97;;;2.00;99.90;;;;;;4996699;28;20041;-87
2023/01/03 07:38:37;;;;;;;35.80;22.73;;;1.90;99.90;;;;;;4997146;28;20049;-86
2023/01/03 07:41:04;;;;;;;40.30;23.30;;;1.90;99.90;;;;;;4996307;28;20045;-87
2023/01/03 07:43:35;;;;;;;45.13;27.57;;;1.90;99.90;;;;;;5012422;28;20092;-87
2023/01/03 07:46:14;;;;;;;52.85;30.33;;;1.90;99.90;;;;;;4980724;28;20046;-86
2023/01/03 07:48:40;;;;;;;51.10;31.07;;;1.90;99.90;;;;;;4997189;28;20385;-87
2023/01/03 07:51:08;;;;;;;49.70;29.60;;;1.90;99.90;;;;;;4996699;28;20044;-87
2023/01/03 07:53:34;;;;;;;51.30;28.83;;;2.00;99.90;;;;;;4996907;28;20452;-86
2023/01/03 07:56:05;;;;;;;45.80;27.13;;;2.00;99.90;;;;;;4996660;28;20077;-86
2023/01/03 07:58:31;;;;;;;46.03;25.33;;;2.00;99.90;;;;;;4997111;28;20381;-86
2023/01/03 08:01:15;;;;;;;77.33;27.33;;;2.00;99.90;;;;;;4980127;28;20044;-87
2023/01/03 08:03:42;;;;;;;61.80;23.57;;;2.00;99.90;;;;;;5012629;28;20055;-86
2023/01/03 08:06:10;;;;;;;86.93;25.03;;;1.90;99.90;;;;;;4996295;28;20080;-87
2023/01/03 08:08:36;;;;;;;126.27;28.53;;;1.90;99.90;;;;;;5012636;28;20065;-86
2023/01/03 08:13:46;;;;;;;77.07;22.07;;;1.90;99.90;;;;;;4988256;28;20046;-86
2023/01/03 08:16:14;;;;;;;134.73;30.23;;;1.90;99.90;;;;;;4960816;28;20136;-86
2023/01/03 08:18:41;;;;;;;90.00;24.47;;;1.90;99.90;;;;;;4997929;28;20461;-86
2023/01/03 08:21:10;;;;;;;99.63;26.43;;;1.90;99.90;;;;;;5012550;28;20172;-87
2023/01/03 08:23:36;;;;;;;114.40;28.53;;;1.90;99.90;;;;;;4996625;28;20041;-87
2023/01/03 08:26:04;;;;;;;115.10;26.67;;;2.00;99.90;;;;;;4996432;28;20042;-86
2023/01/03 08:28:31;;;;;;;141.07;30.20;;;2.00;99.90;;;;;;5011716;28;20038;-86
2023/01/03 08:30:58;;;;;;;96.63;28.07;;;2.00;99.90;;;;;;4995490;28;20033;-85
2023/01/03 08:33:26;;;;;;;132.67;29.03;;;2.10;99.90;;;;;;4996067;28;20041;-87
2023/01/03 08:36:02;;;;;;;121.13;30.47;;;2.10;99.90;;;;;;5011948;28;20552;-87
2023/01/03 08:38:40;;;;;;;104.37;27.13;;;2.20;99.90;;;;;;4995894;28;20378;-87
2023/01/03 08:41:08;;;;;;;147.77;31.57;;;2.20;99.90;;;;;;4995843;28;20095;-88
2023/01/03 08:43:37;;;;;;;163.57;35.83;;;2.30;99.90;;;;;;4980129;28;20041;-87
2023/01/03 08:46:07;;;;;;;97.20;26.60;;;2.30;99.90;;;;;;4995959;28;20045;-87
2023/01/03 08:48:33;;;;;;;243.20;45.77;;;2.40;99.90;;;;;;5012197;28;20086;-88
2023/01/03 08:51:00;;;;;;;182.30;37.37;;;2.40;99.90;;;;;;4979381;28;20038;-87
2023/01/03 08:53:27;;;;;;;199.70;37.67;;;2.50;99.90;;;;;;5012274;28;20431;-87
2023/01/03 08:55:53;;;;;;;169.47;38.00;;;2.50;99.90;;;;;;4995859;28;20046;-87
2023/01/03 08:58:19;;;;;;;286.57;49.07;;;2.60;99.90;;;;;;4963855;28;20072;-88
2023/01/03 09:00:45;;;;;;;238.37;45.77;;;2.70;99.90;;;;;;4979446;28;20034;-88
2023/01/03 09:03:10;;;;;;;219.10;45.67;;;2.70;99.90;;;;;;4979621;28;20070;-87
2023/01/03 09:05:36;;;;;;;207.70;44.10;;;2.80;99.90;;;;;;4979330;28;20515;-87
2023/01/03 09:08:02;;;;;;;327.40;58.80;;;2.90;99.90;;;;;;5012173;28;20046;-88
2023/01/03 09:10:28;;;;;;;223.77;46.97;;;3.00;99.90;;;;;;4978934;28;20058;-87
2023/01/03 09:12:53;;;;;;;183.83;41.87;;;3.10;99.90;;;;;;4964856;28;20042;-87
2023/01/03 09:15:19;;;;;;;254.93;52.57;;;3.20;99.90;;;;;;4999604;28;20103;-87
2023/01/03 09:17:47;;;;;;;325.00;59.83;;;3.20;99.90;;;;;;4983122;28;20132;-87
2023/01/03 09:20:17;;;;;;;275.60;55.33;;;3.30;99.90;;;;;;5015440;28;20103;-87
2023/01/03 09:22:43;;;;;;;204.87;49.93;;;3.40;99.90;;;;;;4998637;28;20156;-88
2023/01/03 09:25:09;;;;;;;321.50;68.63;;;3.50;99.90;;;;;;4998627;28;20129;-88
2023/01/03 09:27:35;;;;;;;237.37;58.97;;;3.60;99.90;;;;;;4982757;28;20072;-87
2023/01/03 09:30:01;;;;;;;123.97;46.37;;;3.60;99.90;;;;;;4999348;28;20077;-87
2023/01/03 09:32:27;;;;;;;218.77;59.57;;;3.70;99.90;;;;;;4982770;28;20406;-87
2023/01/03 09:34:52;;;;;;;197.43;58.17;;;3.80;99.90;;;;;;4983093;28;20070;-86
2023/01/03 09:37:18;;;;;;;113.90;45.80;;;3.80;99.90;;;;;;4983104;28;20128;-88
2023/01/03 09:39:44;;;;;;;144.93;50.40;;;3.90;99.90;;;;;;4982590;28;20041;-88
2023/01/03 09:45:20;;;;;;;115.93;47.60;;;4.10;99.90;;;;;;5015140;28;20823;-87
2023/01/03 09:47:46;;;;;;;129.10;48.90;;;4.10;99.90;;;;;;5015256;28;20040;-88
2023/01/03 09:50:19;;;;;;;121.87;47.77;;;4.20;99.90;;;;;;4966378;28;20824;-88
2023/01/03 10:04:30;;;;;;;117.03;48.37;;;4.60;99.90;;;;;;5014821;28;20496;-86
2023/01/03 10:07:10;;;;;;;103.20;46.77;;;4.60;99.90;;;;;;5014423;28;20690;-87
2023/01/03 10:09:45;;;;;;;87.87;41.30;;;4.70;99.90;;;;;;4994965;28;20141;-88
2023/01/03 10:12:41;;;;;;;98.93;45.57;;;4.70;99.90;;;;;;4996843;28;20060;-87
2023/01/03 10:15:12;;;;;;;99.50;42.40;;;4.70;99.90;;;;;;5014586;28;20038;-88
2023/01/03 10:17:50;;;;;;;100.07;45.13;;;4.70;99.90;;;;;;5014399;28;20041;-88
2023/01/03 10:20:18;;;;;;;104.90;44.10;;;4.70;99.90;;;;;;5015006;28;20363;-88
2023/01/03 10:22:46;;;;;;;100.83;44.30;;;4.80;99.90;;;;;;5014275;28;20053;-88
2023/01/03 10:25:16;;;;;;;106.33;44.23;;;4.80;99.90;;;;;;4997902;28;20046;-87
2023/01/03 10:27:47;;;;;;;103.87;46.33;;;4.80;99.90;;;;;;5014625;28;20073;-87
2023/01/03 10:30:31;;;;;;;112.38;47.00;;;4.90;99.90;;;;;;4998193;28;21644;-88
2023/01/03 10:33:35;;;;;;;104.87;44.93;;;4.90;99.90;;;;;;4997672;28;20550;-88
2023/01/03 10:36:01;;;;;;;106.07;43.90;;;4.90;99.90;;;;;;5014582;28;20481;-88
2023/01/03 10:38:27;;;;;;;94.53;41.63;;;4.90;99.90;;;;;;4981960;28;20129;-89
2023/01/03 10:41:01;;;;;;;103.43;43.80;;;4.90;99.90;;;;;;4981437;28;20042;-88
2023/01/03 10:43:44;;;;;;;101.77;44.83;;;4.90;99.90;;;;;;5014364;28;20038;-88
2023/01/03 10:46:14;;;;;;;106.23;43.93;;;5.00;99.90;;;;;;4981825;28;20045;-87
2023/01/03 10:48:45;;;;;;;105.60;45.33;;;5.00;99.90;;;;;;5013862;28;20034;-87
2023/01/03 10:51:34;;;;;;;98.68;44.67;;;5.00;99.90;;;;;;5013747;28;20117;-88
2023/01/03 10:54:22;;;;;;;104.10;44.43;;;5.10;99.90;;;;;;5013891;28;20049;-87
2023/01/03 10:56:48;;;;;;;106.77;44.77;;;5.10;99.90;;;;;;4997682;28;20370;-88
2023/01/03 10:59:23;;;;;;;87.10;40.40;;;5.20;99.90;;;;;;4997811;28;20050;-88
2023/01/03 11:01:55;;;;;;;94.67;41.97;;;5.30;99.90;;;;;;4997191;28;20054;-88
2023/01/03 11:04:22;;;;;;;95.65;42.70;;;5.30;99.90;;;;;;5013237;28;20489;-89
2023/01/03 11:07:10;;;;;;;95.60;43.83;;;5.40;99.90;;;;;;4997245;28;20046;-88
2023/01/03 11:09:50;;;;;;;94.73;42.87;;;5.50;99.90;;;;;;5013173;28;20046;-88
2023/01/03 11:12:37;;;;;;;93.23;42.93;;;5.50;99.90;;;;;;5013613;28;20046;-87
2023/01/03 11:15:36;;;;;;;90.20;41.27;;;5.50;99.90;;;;;;4997163;28;20041;-88
2023/01/03 11:18:05;;;;;;;97.83;43.60;;;5.50;99.90;;;;;;4997050;28;20068;-88
2023/01/03 11:20:37;;;;;;;86.03;38.73;;;5.50;99.90;;;;;;4997353;28;20042;-87
2023/01/03 11:23:11;;;;;;;86.13;39.60;;;5.60;99.90;;;;;;5012224;28;20401;-86
2023/01/03 11:26:05;;;;;;;84.77;41.40;;;5.60;99.90;;;;;;4996934;28;20049;-87
2023/01/03 11:28:45;;;;;;;85.27;40.10;;;5.60;99.90;;;;;;4997380;28;20494;-87
2023/01/03 11:31:44;;;;;;;82.73;40.93;;;5.70;99.90;;;;;;4982762;28;20042;-87
2023/01/03 11:34:38;;;;;;;87.67;41.93;;;5.70;99.90;;;;;;4996892;28;20128;-87
2023/01/03 11:37:23;;;;;;;88.43;41.93;;;5.80;99.90;;;;;;4996593;28;20038;-87
2023/01/03 11:39:48;;;;;;;76.80;39.50;;;5.80;99.90;;;;;;5013474;28;20398;-86
2023/01/03 11:42:40;;;;;;;82.57;39.73;;;5.90;99.90;;;;;;5014750;28;20045;-86
2023/01/03 11:45:17;;;;;;;85.00;41.50;;;5.90;99.90;;;;;;5012529;28;20042;-87
2023/01/03 11:48:06;;;;;;;78.73;40.57;;;6.00;99.90;;;;;;5013014;28;20105;-86
2023/01/03 11:50:50;;;;;;;77.60;39.40;;;6.00;99.90;;;;;;5012946;28;20043;-87
2023/01/03 11:53:35;;;;;;;69.70;38.50;;;6.00;99.90;;;;;;4996724;28;20073;-87
2023/01/03 11:56:24;;;;;;;80.33;40.10;;;6.00;99.90;;;;;;4976652;28;20520;-87
2023/01/03 11:58:53;;;;;;;75.90;38.70;;;6.00;99.90;;;;;;4993021;28;20594;-87
2023/01/03 12:01:45;;;;;;;81.07;40.37;;;6.00;99.90;;;;;;4996194;28;20076;-87
2023/01/03 12:04:13;;;;;;;76.47;40.60;;;6.00;99.90;;;;;;5012605;28;20487;-88
2023/01/03 12:06:44;;;;;;;75.53;37.77;;;6.00;99.90;;;;;;5012677;28;20042;-87
2023/01/03 12:09:26;;;;;;;79.57;38.60;;;6.00;99.90;;;;;;5012221;28;20108;-87
2023/01/03 12:12:09;;;;;;;70.35;37.22;;;6.00;99.90;;;;;;5011996;28;20050;-87
2023/01/03 12:15:04;;;;;;;68.63;36.77;;;6.00;99.90;;;;;;5012575;28;20042;-87
2023/01/03 12:17:39;;;;;;;62.40;33.07;;;6.00;99.90;;;;;;4983525;28;20054;-87
2023/01/03 12:20:20;;;;;;;57.23;33.10;;;6.00;99.90;;;;;;4995833;28;20547;-85
2023/01/03 12:22:49;;;;;;;62.67;34.33;;;6.10;99.90;;;;;;5012348;28;20064;-87
2023/01/03 12:25:23;;;;;;;68.27;35.37;;;6.10;99.90;;;;;;4977467;28;20039;-87
2023/01/03 12:27:55;;;;;;;63.50;33.47;;;6.10;99.90;;;;;;4996333;28;20049;-85
2023/01/03 12:30:29;;;;;;;59.55;33.28;;;6.10;99.90;;;;;;4992707;28;20042;-86
2023/01/03 12:33:04;;;;;;;60.00;33.97;;;6.10;99.90;;;;;;4992502;28;20038;-87
2023/01/03 12:35:48;;;;;;;58.93;32.50;;;6.20;99.90;;;;;;4992456;28;20046;-87
2023/01/03 12:38:17;;;;;;;55.17;31.40;;;6.20;99.90;;;;;;4992177;28;20067;-86
2023/01/03 12:40:58;;;;;;;51.00;30.10;;;6.20;99.90;;;;;;5011886;28;20497;-88
2023/01/03 12:43:32;;;;;;;55.33;31.50;;;6.20;99.90;;;;;;5011037;28;20037;-88
2023/01/03 12:46:14;;;;;;;58.53;32.13;;;6.20;99.90;;;;;;4990946;28;20190;-87
2023/01/03 12:48:43;;;;;;;;;;;6.30;99.90;;;;;;4992479;28;20091;-87
2023/01/03 12:51:09;;;;;;;48.77;28.23;;;6.30;99.90;;;;;;5007159;28;19931;-87
2023/01/03 12:53:56;;;;;;;52.37;27.97;;;6.30;99.90;;;;;;4959112;28;20041;-87
2023/01/03 12:56:57;;;;;;;50.97;28.13;;;6.30;99.90;;;;;;5024923;28;20085;-85
2023/01/03 12:59:45;;;;;;;52.70;28.10;;;6.30;99.90;;;;;;5003141;28;20048;-88
2023/01/03 13:02:51;;;;;;;54.83;29.57;;;6.40;99.90;;;;;;5006971;28;20904;-87
2023/01/03 13:05:29;;;;;;;48.17;25.37;;;6.40;99.90;;;;;;4971132;28;20042;-87
2023/01/03 13:08:43;;;;;;;54.27;27.73;;;6.40;99.90;;;;;;4971057;28;20053;-87
2023/01/03 13:11:22;;;;;;;52.00;27.60;;;6.40;99.90;;;;;;4982130;28;20104;-87
2023/01/03 13:13:53;;;;;;;53.23;26.80;;;6.40;99.90;;;;;;5008327;28;20058;-87
2023/01/03 13:16:49;;;;;;;53.00;27.23;;;6.40;99.90;;;;;;4991281;28;20049;-86
2023/01/03 13:19:21;;;;;;;53.90;26.53;;;6.40;99.90;;;;;;4981599;28;20050;-87
2023/01/03 13:21:52;;;;;;;56.67;28.25;;;6.50;99.90;;;;;;5006035;28;20116;-86
2023/01/03 13:24:45;;;;;;;45.33;25.58;;;6.50;99.90;;;;;;4991702;28;20137;-87
2023/01/03 13:27:21;;;;;;;50.23;26.73;;;6.50;99.90;;;;;;4983772;28;20061;-86
2023/01/03 13:29:55;;;;;;;54.13;26.73;;;6.50;99.90;;;;;;4990780;28;20494;-88
2023/01/03 13:32:21;;;;;;;46.77;25.63;;;6.50;99.90;;;;;;4988614;28;20049;-87
2023/01/03 13:34:52;;;;;;;55.87;27.13;;;6.50;99.90;;;;;;4985923;28;20038;-87
2023/01/03 13:37:23;;;;;;;49.80;26.00;;;6.60;99.90;;;;;;5008390;28;20041;-87
2023/01/03 13:39:51;;;;;;;51.20;26.83;;;6.50;99.90;;;;;;4974331;28;20057;-87
2023/01/03 13:43:02;;;;;;;47.70;24.70;;;6.50;99.90;;;;;;4991298;28;20046;-87
2023/01/03 13:45:31;;;;;;;53.57;27.57;;;6.60;99.90;;;;;;4980501;28;20711;-87
2023/01/03 13:48:07;;;;;;;54.83;27.17;;;6.50;99.90;;;;;;4991051;28;20042;-87
2023/01/03 13:50:35;;;;;;;52.00;26.23;;;6.60;99.90;;;;;;4985399;28;20573;-86
2023/01/03 13:53:02;;;;;;;53.57;27.90;;;6.60;99.90;;;;;;5003775;28;20037;-87
2023/01/03 13:55:39;;;;;;;43.53;24.23;;;6.60;99.90;;;;;;4988958;28;20079;-86
2023/01/03 13:58:23;;;;;;;47.73;26.57;;;6.60;99.90;;;;;;5003198;28;20563;-87
2023/01/03 14:00:55;;;;;;;44.87;22.47;;;6.70;99.90;;;;;;5007321;28;20042;-86
2023/01/03 14:03:30;;;;;;;;;;;6.70;99.90;;;;;;4986497;28;20045;-86
2023/01/03 14:06:10;;;;;;;41.17;23.10;;;6.70;99.90;;;;;;5006474;28;19936;-87